createdAt,value
2023-09-08T00:01:26.390Z,8.15
2023-09-08T00:03:53.745Z,7.90
2023-09-08T00:06:21.034Z,8.43
2023-09-08T00:08:48.308Z,8.45
2023-09-08T00:11:15.512Z,8.50
2023-09-08T00:13:43.011Z,7.80
2023-09-08T00:16:11.341Z,8.25
2023-09-08T00:18:38.746Z,8.60
2023-09-08T00:21:05.953Z,8.45
2023-09-08T00:23:33.259Z,8.73
2023-09-08T00:26:00.628Z,8.50
2023-09-08T00:28:27.966Z,8.50
2023-09-08T00:30:55.205Z,8.98
2023-09-08T00:33:23.610Z,8.57
2023-09-08T00:35:51.286Z,8.68
2023-09-08T00:38:18.783Z,8.52
2023-09-08T00:40:46.080Z,8.63
2023-09-08T00:43:13.384Z,8.93
2023-09-08T00:45:42.227Z,8.60
2023-09-08T00:48:10.001Z,8.45
2023-09-08T00:50:38.065Z,9.32
2023-09-08T00:53:06.241Z,9.35
2023-09-08T00:55:34.019Z,9.35
2023-09-08T00:58:01.665Z,8.93
2023-09-08T01:00:28.905Z,8.73
2023-09-08T01:02:56.269Z,9.40
2023-09-08T01:05:23.714Z,9.23
2023-09-08T01:07:52.713Z,9.43
2023-09-08T01:10:19.997Z,9.35
2023-09-08T01:12:47.292Z,9.32
2023-09-08T01:15:14.767Z,8.85
2023-09-08T01:17:42.198Z,10.38
2023-09-08T01:20:26.205Z,9.57
2023-09-08T01:23:05.675Z,9.57
2023-09-08T01:25:34.563Z,10.23
2023-09-08T01:28:02.741Z,10.18
2023-09-08T01:30:33.390Z,10.27
2023-09-08T01:33:01.584Z,10.32
2023-09-08T01:35:29.134Z,10.73
2023-09-08T01:37:56.360Z,10.68
2023-09-08T01:40:23.659Z,10.20
2023-09-08T01:42:50.996Z,10.73
2023-09-08T01:45:18.236Z,11.23
2023-09-08T01:47:45.614Z,10.27
2023-09-08T01:50:12.893Z,10.88
2023-09-08T01:52:40.521Z,10.95
2023-09-08T01:55:08.859Z,10.73
2023-09-08T01:57:36.257Z,12.35
2023-09-08T02:00:03.438Z,11.73
2023-09-08T02:02:39.929Z,11.05
2023-09-08T02:05:08.118Z,10.75
2023-09-08T02:07:35.398Z,10.98
2023-09-08T02:10:02.696Z,11.43
2023-09-08T02:12:29.940Z,11.00
2023-09-08T02:14:57.213Z,11.25
2023-09-08T02:17:24.554Z,11.02
2023-09-08T02:19:51.738Z,11.20
2023-09-08T02:22:18.963Z,10.68
2023-09-08T02:24:46.704Z,11.05
2023-09-08T02:27:13.962Z,11.27
2023-09-08T02:29:41.173Z,10.85
2023-09-08T02:32:08.358Z,10.95
2023-09-08T02:34:37.687Z,11.70
2023-09-08T02:37:05.982Z,10.82
2023-09-08T02:39:34.743Z,11.43
2023-09-08T02:42:01.987Z,11.90
2023-09-08T02:44:30.467Z,11.10
2023-09-08T02:46:57.764Z,12.73
2023-09-08T02:49:26.188Z,11.32
2023-09-08T02:51:53.476Z,11.63
2023-09-08T02:54:20.794Z,10.55
2023-09-08T02:56:48.079Z,11.48
2023-09-08T02:59:15.322Z,11.27
2023-09-08T03:01:42.875Z,11.38
2023-09-08T03:04:10.352Z,12.18
2023-09-08T03:06:37.612Z,11.05
2023-09-08T03:09:05.088Z,12.20
2023-09-08T03:11:32.293Z,11.70
2023-09-08T03:14:00.070Z,11.88
2023-09-08T03:16:27.326Z,12.23
2023-09-08T03:18:54.605Z,11.98
2023-09-08T03:21:21.811Z,11.65
2023-09-08T03:23:49.248Z,12.15
2023-09-08T03:26:17.181Z,11.30
2023-09-08T03:28:44.597Z,11.75
2023-09-08T03:31:11.971Z,11.93
2023-09-08T03:33:40.313Z,11.95
2023-09-08T03:36:09.170Z,12.65
2023-09-08T03:38:38.627Z,11.32
2023-09-08T03:41:06.050Z,11.52
2023-09-08T03:43:33.527Z,10.70
2023-09-08T03:46:02.356Z,11.75
2023-09-08T03:48:29.642Z,12.27
2023-09-08T03:50:56.831Z,12.88
2023-09-08T03:53:24.217Z,13.27
2023-09-08T03:55:51.760Z,12.13
2023-09-08T03:58:19.257Z,12.50
2023-09-08T04:00:46.735Z,13.20
2023-09-08T04:03:14.287Z,11.90
2023-09-08T04:05:41.730Z,12.40
2023-09-08T04:08:09.020Z,12.32
2023-09-08T04:10:36.432Z,12.07
2023-09-08T04:13:03.601Z,12.20
2023-09-08T04:15:30.863Z,12.40
2023-09-08T04:17:58.886Z,11.60
2023-09-08T04:20:26.818Z,12.60
2023-09-08T04:22:54.869Z,12.93
2023-09-08T04:25:22.183Z,12.65
2023-09-08T04:27:49.674Z,12.25
2023-09-08T04:30:17.152Z,12.18
2023-09-08T04:32:45.168Z,11.95
2023-09-08T04:35:12.946Z,12.70
2023-09-08T04:37:41.234Z,12.15
2023-09-08T04:40:08.891Z,12.77
2023-09-08T04:42:37.309Z,12.40
2023-09-08T04:45:05.311Z,12.35
2023-09-08T04:47:32.615Z,12.05
2023-09-08T04:50:00.254Z,11.95
2023-09-08T04:52:27.477Z,12.85
2023-09-08T04:54:55.944Z,12.98
2023-09-08T04:57:23.931Z,12.45
2023-09-08T04:59:54.666Z,12.75
2023-09-08T05:02:22.716Z,12.57
2023-09-08T05:04:50.194Z,12.18
2023-09-08T05:07:20.081Z,12.60
2023-09-08T05:09:47.990Z,12.40
2023-09-08T05:12:15.728Z,13.05
2023-09-08T05:14:43.134Z,12.55
2023-09-08T05:17:10.671Z,11.95
2023-09-08T05:19:37.883Z,12.30
2023-09-08T05:22:07.251Z,12.73
2023-09-08T05:24:34.622Z,12.63
2023-09-08T05:27:02.061Z,12.80
2023-09-08T05:29:29.380Z,11.98
2023-09-08T05:31:56.857Z,12.00
2023-09-08T05:34:24.370Z,11.80
2023-09-08T05:36:51.941Z,12.32
2023-09-08T05:39:20.313Z,11.88
2023-09-08T05:41:47.934Z,12.27
2023-09-08T05:44:15.545Z,12.57
2023-09-08T05:46:43.006Z,12.27
2023-09-08T05:49:10.840Z,12.60
2023-09-08T05:51:38.268Z,13.10
2023-09-08T05:54:06.724Z,11.98
2023-09-08T05:56:35.321Z,12.10
2023-09-08T05:59:02.829Z,12.40
2023-09-08T06:01:31.359Z,12.90
2023-09-08T06:03:59.445Z,13.27
2023-09-08T06:06:29.756Z,11.98
2023-09-08T06:08:57.188Z,11.80
2023-09-08T06:11:24.920Z,12.27
2023-09-08T06:13:53.545Z,12.05
2023-09-08T06:16:21.160Z,12.43
2023-09-08T06:18:48.701Z,12.77
2023-09-08T06:21:19.596Z,12.88
2023-09-08T06:23:47.077Z,11.55
2023-09-08T06:26:14.812Z,12.57
2023-09-08T06:28:44.605Z,11.98
2023-09-08T06:31:11.947Z,12.75
2023-09-08T06:33:41.161Z,12.20
2023-09-08T06:36:08.603Z,11.82
2023-09-08T06:38:36.187Z,12.38
2023-09-08T06:41:10.667Z,11.52
2023-09-08T06:43:37.884Z,11.85
2023-09-08T06:48:37.982Z,11.95
2023-09-08T06:51:05.776Z,11.15
2023-09-08T06:53:33.770Z,12.20
2023-09-08T06:56:01.096Z,11.18
2023-09-08T06:58:29.247Z,12.18
2023-09-08T07:00:57.352Z,11.13
2023-09-08T07:03:25.424Z,10.85
2023-09-08T07:05:53.223Z,10.45
2023-09-08T07:08:22.353Z,11.07
2023-09-08T07:10:54.173Z,11.20
2023-09-08T07:13:21.683Z,10.68
2023-09-08T07:15:49.079Z,10.13
2023-09-08T07:18:16.681Z,10.43
2023-09-08T07:20:48.576Z,10.50
2023-09-08T07:23:16.334Z,10.90
2023-09-08T07:25:47.007Z,9.95
2023-09-08T07:28:14.197Z,9.93
2023-09-08T07:30:41.486Z,9.50
2023-09-08T07:33:08.966Z,9.70
2023-09-08T07:35:40.828Z,9.57
2023-09-08T07:38:08.710Z,9.15
2023-09-08T07:40:36.078Z,8.90
2023-09-08T07:43:03.855Z,9.68
2023-09-08T07:45:31.203Z,8.68
2023-09-08T07:47:58.559Z,9.45
2023-09-08T07:50:26.921Z,9.00
2023-09-08T07:52:55.156Z,9.23
2023-09-08T07:55:28.549Z,9.00
2023-09-08T07:57:56.211Z,9.27
2023-09-08T08:00:23.555Z,9.80
2023-09-08T08:02:51.975Z,9.73
2023-09-08T08:05:19.337Z,8.52
2023-09-08T08:07:46.790Z,9.60
2023-09-08T08:10:14.395Z,9.50
2023-09-08T08:12:42.294Z,9.52
2023-09-08T08:15:11.333Z,9.13
2023-09-08T08:17:39.160Z,9.05
2023-09-08T08:20:11.023Z,9.30
2023-09-08T08:22:39.060Z,9.55
2023-09-08T08:25:06.987Z,8.15
2023-09-08T08:27:34.354Z,8.82
2023-09-08T08:30:01.848Z,8.93
2023-09-08T08:32:29.684Z,8.63
2023-09-08T08:34:57.877Z,8.48
2023-09-08T08:37:25.162Z,7.90
2023-09-08T08:39:52.605Z,7.70
2023-09-08T08:42:23.459Z,8.20
2023-09-08T08:44:51.654Z,8.02
2023-09-08T08:47:19.969Z,7.55
2023-09-08T08:49:47.998Z,8.10
2023-09-08T08:52:16.564Z,7.20
2023-09-08T08:54:43.984Z,7.88
2023-09-08T08:57:13.012Z,7.68
2023-09-08T08:59:42.386Z,7.80
2023-09-08T09:02:12.114Z,7.10
2023-09-08T09:04:39.610Z,6.97
2023-09-08T09:07:09.884Z,6.95
2023-09-08T09:09:37.467Z,7.35
2023-09-08T09:12:04.891Z,7.28
2023-09-08T09:14:36.152Z,7.63
2023-09-08T09:17:05.656Z,7.20
2023-09-08T09:19:34.204Z,6.90
2023-09-08T09:22:01.495Z,6.70
2023-09-08T09:24:38.269Z,7.07
2023-09-08T09:27:09.073Z,7.13
2023-09-08T09:29:46.514Z,7.25
2023-09-08T09:32:14.139Z,6.63
2023-09-08T09:34:54.343Z,7.28
2023-09-08T09:37:22.072Z,6.93
2023-09-08T09:39:53.278Z,6.88
2023-09-08T09:42:22.102Z,6.90
2023-09-08T09:44:50.391Z,7.10
2023-09-08T09:47:17.869Z,6.60
2023-09-08T09:49:46.218Z,6.53
2023-09-08T09:52:16.917Z,6.60
2023-09-08T09:54:44.462Z,6.47
2023-09-08T09:57:15.625Z,6.78
2023-09-08T09:59:43.458Z,7.07
2023-09-08T10:02:13.664Z,6.82
2023-09-08T10:04:44.536Z,6.35
2023-09-08T10:07:12.019Z,6.38
2023-09-08T10:09:39.354Z,6.55
2023-09-08T10:12:07.315Z,6.20
2023-09-08T10:14:37.198Z,6.40
2023-09-08T10:17:09.604Z,5.65
2023-09-08T10:19:43.653Z,6.43
2023-09-08T10:22:16.066Z,7.25
2023-09-08T10:24:44.912Z,6.97
2023-09-08T10:27:13.093Z,6.88
2023-09-08T10:29:40.789Z,9.10
2023-09-08T10:32:10.399Z,24.73
2023-09-08T10:34:38.260Z,11.63
2023-09-08T10:37:19.184Z,7.65
2023-09-08T10:39:46.539Z,7.32
2023-09-08T10:42:22.501Z,7.65
2023-09-08T10:44:50.375Z,6.78
2023-09-08T10:47:21.393Z,6.15
2023-09-08T10:49:48.806Z,6.57
2023-09-08T10:52:17.768Z,6.25
2023-09-08T10:54:52.941Z,6.47
2023-09-08T10:57:22.425Z,6.55
2023-09-08T10:59:57.705Z,6.95
2023-09-08T11:02:48.992Z,6.40
2023-09-08T11:05:16.976Z,6.78
2023-09-08T11:07:45.768Z,6.70
2023-09-08T11:10:14.019Z,6.93
2023-09-08T11:12:41.368Z,6.90
2023-09-08T11:15:09.669Z,7.20
2023-09-08T11:17:40.727Z,6.70
2023-09-08T11:20:10.254Z,6.90
2023-09-08T11:22:41.886Z,6.43
2023-09-08T11:25:12.314Z,5.78
2023-09-08T11:27:40.912Z,6.75
2023-09-08T11:30:09.399Z,6.32
2023-09-08T11:32:37.373Z,5.90
2023-09-08T11:35:10.030Z,6.35
2023-09-08T11:37:42.265Z,6.00
2023-09-08T11:40:11.263Z,6.20
2023-09-08T11:42:46.249Z,6.40
2023-09-08T11:45:24.517Z,6.18
2023-09-08T11:47:51.817Z,6.65
2023-09-08T11:50:20.122Z,5.72
2023-09-08T11:52:49.625Z,6.25
2023-09-08T11:55:17.171Z,5.72
2023-09-08T11:57:47.280Z,5.88
2023-09-08T12:00:18.370Z,5.30
2023-09-08T12:02:46.410Z,5.47
2023-09-08T12:05:15.081Z,5.85
2023-09-08T12:07:42.307Z,6.40
2023-09-08T12:10:12.803Z,5.60
2023-09-08T12:12:50.763Z,5.97
2023-09-08T12:15:40.042Z,6.13
2023-09-08T12:18:12.731Z,5.60
2023-09-08T12:20:41.189Z,5.90
2023-09-08T12:23:20.711Z,5.80
2023-09-08T12:25:52.576Z,5.90
2023-09-08T12:28:21.993Z,6.40
2023-09-08T12:30:51.067Z,5.72
2023-09-08T12:33:21.413Z,6.35
2023-09-08T12:35:52.039Z,6.20
2023-09-08T12:38:19.629Z,6.53
2023-09-08T12:40:46.956Z,6.35
2023-09-08T12:43:27.359Z,5.13
2023-09-08T12:45:56.292Z,5.70
2023-09-08T12:48:23.921Z,5.22
2023-09-08T12:50:51.281Z,5.13
2023-09-08T12:53:24.189Z,5.40
2023-09-08T12:55:51.650Z,5.75
2023-09-08T12:58:18.905Z,5.38
2023-09-08T13:00:46.472Z,5.32
2023-09-08T13:03:13.565Z,5.30
2023-09-08T13:05:41.038Z,5.30
2023-09-08T13:08:08.174Z,5.40
2023-09-08T13:10:35.480Z,5.50
2023-09-08T13:13:02.984Z,4.90
2023-09-08T13:15:30.357Z,5.28
2023-09-08T13:17:57.886Z,5.43
2023-09-08T13:20:25.318Z,4.75
2023-09-08T13:22:52.824Z,4.80
2023-09-08T13:25:19.996Z,5.35
2023-09-08T13:27:49.260Z,4.90
2023-09-08T13:30:17.286Z,5.18
2023-09-08T13:32:44.888Z,5.47
2023-09-08T13:35:12.503Z,4.72
2023-09-08T13:37:39.700Z,5.15
2023-09-08T13:40:08.209Z,5.38
2023-09-08T13:42:36.177Z,4.63
2023-09-08T13:45:04.299Z,5.05
2023-09-08T13:47:32.996Z,5.13
2023-09-08T13:50:03.233Z,5.40
2023-09-08T13:52:36.753Z,5.38
2023-09-08T13:55:30.210Z,5.57
2023-09-08T13:57:55.969Z,5.55
2023-09-08T14:00:25.086Z,5.18
2023-09-08T14:02:57.827Z,4.93
2023-09-08T14:05:28.555Z,5.50
2023-09-08T14:08:07.336Z,5.13
2023-09-08T14:13:06.205Z,5.28
2023-09-08T14:15:33.398Z,4.82
2023-09-08T14:18:00.645Z,5.07
2023-09-08T14:20:27.817Z,5.18
2023-09-08T14:22:55.031Z,5.20
2023-09-08T14:25:22.347Z,5.60
2023-09-08T14:27:49.758Z,5.82
2023-09-08T14:30:16.916Z,5.50
2023-09-08T14:32:44.379Z,5.22
2023-09-08T14:35:11.722Z,5.50
2023-09-08T14:37:38.855Z,5.93
2023-09-08T14:40:07.319Z,5.15
2023-09-08T14:42:34.516Z,5.30
2023-09-08T14:45:01.719Z,5.53
2023-09-08T14:47:29.018Z,5.38
2023-09-08T14:49:57.868Z,5.53
2023-09-08T14:52:25.201Z,6.30
2023-09-08T14:54:51.894Z,5.60
2023-09-08T14:57:19.270Z,5.03
2023-09-08T14:59:46.736Z,5.20
2023-09-08T15:02:14.020Z,5.70
2023-09-08T15:04:41.548Z,5.30
2023-09-08T15:07:08.889Z,5.55
2023-09-08T15:09:36.116Z,5.30
2023-09-08T15:12:03.360Z,5.00
2023-09-08T15:14:30.584Z,5.50
2023-09-08T15:16:57.798Z,5.63
2023-09-08T15:19:25.021Z,5.68
2023-09-08T15:21:52.160Z,5.75
2023-09-08T15:24:19.337Z,5.32
2023-09-08T15:26:47.324Z,5.07
2023-09-08T15:29:15.680Z,5.57
2023-09-08T15:31:43.037Z,5.60
2023-09-08T15:34:11.843Z,5.25
2023-09-08T15:36:39.212Z,5.53
2023-09-08T15:39:06.123Z,5.47
2023-09-08T15:41:33.510Z,5.25
2023-09-08T15:44:00.713Z,5.78
2023-09-08T15:46:28.103Z,6.45
2023-09-08T15:48:55.352Z,6.05
2023-09-08T15:51:22.518Z,6.28
2023-09-08T15:53:49.938Z,6.80
2023-09-08T15:56:17.388Z,6.32
2023-09-08T15:58:44.786Z,6.30
2023-09-08T16:01:13.250Z,6.03
2023-09-08T16:03:40.990Z,6.53
2023-09-08T16:06:09.844Z,6.15
2023-09-08T16:08:38.109Z,6.20
2023-09-08T16:11:05.335Z,5.95
2023-09-08T16:13:32.837Z,5.78
2023-09-08T16:16:00.374Z,5.50
2023-09-08T16:18:27.616Z,5.78
2023-09-08T16:20:54.841Z,6.28
2023-09-08T16:23:22.019Z,5.57
2023-09-08T16:25:49.341Z,6.38
2023-09-08T16:28:16.635Z,6.68
2023-09-08T16:30:43.906Z,6.47
2023-09-08T16:33:11.211Z,5.90
2023-09-08T16:35:39.245Z,6.05
2023-09-08T16:38:07.600Z,6.72
2023-09-08T16:40:34.856Z,6.22
2023-09-08T16:43:06.250Z,7.03
2023-09-08T16:45:33.535Z,6.20
2023-09-08T16:48:00.998Z,6.32
2023-09-08T16:50:28.313Z,6.10
2023-09-08T16:52:55.616Z,6.00
2023-09-08T16:55:22.881Z,6.57
2023-09-08T16:57:50.034Z,6.25
2023-09-08T17:00:17.564Z,5.95
2023-09-08T17:02:45.125Z,7.00
2023-09-08T17:05:16.231Z,6.75
2023-09-08T17:07:44.354Z,5.78
2023-09-08T17:10:11.741Z,6.45
2023-09-08T17:12:38.991Z,6.32
2023-09-08T17:15:06.699Z,7.20
2023-09-08T17:17:33.895Z,6.57
2023-09-08T17:20:01.260Z,6.63
2023-09-08T17:22:28.552Z,7.03
2023-09-08T17:24:55.801Z,7.07
2023-09-08T17:27:23.050Z,7.55
2023-09-08T17:29:50.392Z,7.10
2023-09-08T17:32:18.040Z,7.35
2023-09-08T17:34:45.661Z,7.85
2023-09-08T17:37:13.863Z,7.30
2023-09-08T17:39:41.162Z,7.68
2023-09-08T17:42:08.432Z,7.22
2023-09-08T17:44:37.487Z,7.28
2023-09-08T17:47:07.043Z,7.80
2023-09-08T17:49:37.318Z,8.10
2023-09-08T17:52:05.056Z,8.40
2023-09-08T17:54:32.608Z,8.13
2023-09-08T17:57:00.401Z,8.02
2023-09-08T17:59:27.766Z,7.15
2023-09-08T18:01:55.123Z,8.30
2023-09-08T18:04:22.657Z,8.32
2023-09-08T18:06:50.149Z,7.93
2023-09-08T18:09:17.693Z,8.80
2023-09-08T18:11:45.025Z,9.02
2023-09-08T18:14:12.276Z,11.15
2023-09-08T18:16:39.545Z,10.85
2023-09-08T18:19:07.038Z,10.82
2023-09-08T18:21:34.396Z,9.70
2023-09-08T18:24:01.642Z,10.02
2023-09-08T18:26:28.822Z,8.75
2023-09-08T18:28:56.001Z,8.75
2023-09-08T18:31:26.694Z,9.00
2023-09-08T18:33:54.652Z,8.98
2023-09-08T18:36:22.785Z,9.88
2023-09-08T18:38:50.457Z,9.57
2023-09-08T18:41:18.414Z,9.60
2023-09-08T18:43:45.624Z,9.85
2023-09-08T18:46:13.026Z,8.90
2023-09-08T18:48:40.516Z,8.55
2023-09-08T18:51:07.896Z,9.18
2023-09-08T18:53:35.760Z,9.23
2023-09-08T18:56:04.749Z,9.15
2023-09-08T18:58:34.094Z,9.15
2023-09-08T19:01:07.956Z,9.60
2023-09-08T19:03:35.902Z,10.77
2023-09-08T19:06:03.389Z,9.90
2023-09-08T19:08:32.840Z,9.80
2023-09-08T19:11:00.363Z,10.85
2023-09-08T19:13:27.665Z,10.23
2023-09-08T19:15:54.789Z,11.15
2023-09-08T19:18:22.029Z,10.27
2023-09-08T19:20:49.334Z,9.60
2023-09-08T19:23:16.577Z,9.65
2023-09-08T19:25:43.947Z,9.65
2023-09-08T19:28:14.532Z,9.98
2023-09-08T19:30:49.000Z,9.75
2023-09-08T19:33:16.723Z,10.52
2023-09-08T19:35:43.996Z,9.38
2023-09-08T19:38:11.407Z,9.60
2023-09-08T19:40:38.715Z,9.52
2023-09-08T19:43:05.972Z,10.75
2023-09-08T19:45:33.303Z,10.30
2023-09-08T19:48:00.833Z,10.30
2023-09-08T19:50:28.292Z,10.27
2023-09-08T19:52:55.525Z,10.35
2023-09-08T19:55:22.775Z,11.27
2023-09-08T19:57:50.986Z,10.65
2023-09-08T20:00:18.408Z,10.43
2023-09-08T20:02:45.870Z,10.07
2023-09-08T20:05:13.196Z,10.07
2023-09-08T20:07:40.578Z,11.13
2023-09-08T20:10:10.271Z,11.10
2023-09-08T20:12:39.509Z,10.73
2023-09-08T20:15:07.228Z,11.63
2023-09-08T20:17:34.532Z,10.88
2023-09-08T20:20:01.897Z,10.55
2023-09-08T20:22:29.342Z,10.73
2023-09-08T20:24:56.488Z,10.07
2023-09-08T20:27:23.791Z,10.30
2023-09-08T20:29:55.140Z,11.55
2023-09-08T20:32:22.471Z,12.18
2023-09-08T20:34:49.846Z,11.77
2023-09-08T20:37:17.088Z,11.10
2023-09-08T20:39:44.321Z,11.70
2023-09-08T20:42:12.729Z,11.70
2023-09-08T20:44:40.872Z,12.20
2023-09-08T20:47:08.050Z,13.45
2023-09-08T20:49:35.400Z,12.25
2023-09-08T20:52:02.601Z,13.10
2023-09-08T20:54:29.840Z,11.93
2023-09-08T20:56:57.143Z,12.50
2023-09-08T20:59:26.252Z,12.90
2023-09-08T21:01:55.528Z,12.95
2023-09-08T21:04:22.743Z,13.25
2023-09-08T21:06:49.911Z,13.48
2023-09-08T21:09:17.168Z,14.20
2023-09-08T21:11:46.282Z,15.93
2023-09-08T21:14:13.449Z,16.23
2023-09-08T21:16:40.656Z,17.08
2023-09-08T21:19:07.984Z,17.08
2023-09-08T21:21:35.443Z,16.70
2023-09-08T21:24:02.745Z,16.30
2023-09-08T21:26:30.020Z,15.68
2023-09-08T21:28:57.299Z,15.77
2023-09-08T21:31:24.547Z,15.93
2023-09-08T21:33:51.767Z,16.33
2023-09-08T21:36:19.171Z,16.55
2023-09-08T21:38:46.789Z,17.20
2023-09-08T21:41:14.409Z,16.80
2023-09-08T21:43:41.740Z,15.68
2023-09-08T21:46:10.425Z,15.90
2023-09-08T21:48:38.416Z,15.40
2023-09-08T21:51:06.477Z,14.98
2023-09-08T21:53:33.957Z,15.07
2023-09-08T21:56:01.378Z,14.57
2023-09-08T21:58:28.724Z,14.43
2023-09-08T22:00:57.115Z,14.43
2023-09-08T22:03:24.599Z,14.63
2023-09-08T22:05:52.026Z,15.43
2023-09-08T22:08:19.304Z,15.38
2023-09-08T22:10:46.451Z,15.45
2023-09-08T22:13:13.627Z,15.98
2023-09-08T22:15:41.055Z,16.33
2023-09-08T22:18:08.486Z,16.13
2023-09-08T22:20:35.720Z,16.33
2023-09-08T22:23:03.009Z,16.17
2023-09-08T22:25:34.346Z,16.42
2023-09-08T22:28:02.083Z,16.40
2023-09-08T22:30:29.464Z,16.25
2023-09-08T22:32:56.927Z,15.02
2023-09-08T22:35:24.535Z,15.15
2023-09-08T22:37:53.012Z,15.80
2023-09-08T22:40:20.366Z,14.77
2023-09-08T22:42:47.726Z,14.68
2023-09-08T22:45:15.006Z,15.40
2023-09-08T22:47:42.266Z,15.38
2023-09-08T22:50:11.705Z,14.30
2023-09-08T22:52:42.262Z,14.82
2023-09-08T22:55:24.109Z,13.50
2023-09-08T22:57:53.015Z,13.15
2023-09-08T23:00:20.806Z,13.55
2023-09-08T23:02:48.552Z,12.80
2023-09-08T23:05:16.105Z,14.00
2023-09-08T23:07:43.850Z,12.75
2023-09-08T23:10:11.518Z,13.23
2023-09-08T23:12:38.920Z,13.35
2023-09-08T23:15:06.555Z,14.57
2023-09-08T23:17:34.116Z,14.10
2023-09-08T23:20:01.429Z,15.30
2023-09-08T23:22:29.717Z,16.88
2023-09-08T23:24:56.892Z,17.88
2023-09-08T23:27:24.182Z,17.70
2023-09-08T23:29:52.380Z,17.17
2023-09-08T23:32:19.577Z,16.83
2023-09-08T23:34:46.805Z,16.90
2023-09-08T23:37:14.101Z,16.65
2023-09-08T23:39:41.348Z,16.65
2023-09-08T23:42:09.544Z,17.08
2023-09-08T23:44:37.361Z,17.33
2023-09-08T23:47:07.430Z,16.35
2023-09-08T23:49:34.788Z,15.50
2023-09-08T23:52:02.071Z,15.07
2023-09-08T23:54:29.356Z,15.45
2023-09-08T23:57:00.855Z,15.10
2023-09-08T23:59:28.193Z,14.70
